Time;durP1;ratioP1;P1;durP2;ratioP2;P2;SDS_P1;SDS_P2;PMS_P1;PMS_P2;Temp;Humidity;BMP_temperature;BMP_pressure;BME280_temperature;BME280_humidity;BME280_pressure;Samples;Min_cycle;Max_cycle;Signal;HPM_P1;HPM_P2
2022/06/27 00:00:55;;;;;;;8.85;6.22;;;18.60;99.90;;;;;;5109804;28;20047;-71
2022/06/27 00:03:21;;;;;;;9.02;5.97;;;18.60;99.90;;;;;;5110616;28;20395;-71
2022/06/27 00:05:46;;;;;;;9.45;6.30;;;18.60;99.90;;;;;;5112750;27;20422;-70
2022/06/27 00:08:12;;;;;;;9.82;6.60;;;18.60;99.90;;;;;;5130364;27;20463;-70
2022/06/27 00:10:39;;;;;;;10.00;6.00;;;18.60;99.90;;;;;;5129290;27;20404;-71
2022/06/27 00:13:06;;;;;;;8.13;6.40;;;18.60;99.90;;;;;;5107463;28;20047;-71
2022/06/27 00:15:31;;;;;;;8.15;6.13;;;18.60;99.90;;;;;;5110051;28;20040;-71
2022/06/27 00:17:57;;;;;;;8.73;5.95;;;18.60;99.90;;;;;;5110621;27;20411;-71
2022/06/27 00:20:24;;;;;;;8.73;6.82;;;18.60;99.90;;;;;;5109631;28;20039;-71
2022/06/27 00:22:51;;;;;;;9.05;6.57;;;18.60;99.90;;;;;;5109601;28;20135;-72
2022/06/27 00:25:16;;;;;;;10.30;6.38;;;18.60;99.90;;;;;;5120506;27;20042;-71
2022/06/27 00:27:42;;;;;;;7.97;6.30;;;18.50;99.90;;;;;;5128958;27;20035;-71
2022/06/27 00:30:08;;;;;;;10.43;6.50;;;18.50;99.90;;;;;;5132638;27;20039;-71
2022/06/27 00:32:34;;;;;;;10.05;7.15;;;18.60;99.90;;;;;;5131122;27;20332;-71
2022/06/27 00:34:59;;;;;;;10.32;7.32;;;18.60;99.90;;;;;;5129393;27;20043;-71
2022/06/27 00:37:25;;;;;;;10.15;7.53;;;18.60;99.90;;;;;;5130082;27;20046;-70
2022/06/27 00:39:51;;;;;;;10.70;7.90;;;18.50;99.90;;;;;;5129800;27;20391;-71
2022/06/27 00:42:16;;;;;;;9.57;7.50;;;18.50;99.90;;;;;;5128477;27;20479;-70
2022/06/27 00:44:43;;;;;;;10.57;7.45;;;18.50;99.90;;;;;;5131267;27;20084;-72
2022/06/27 00:47:11;;;;;;;10.07;7.40;;;18.50;99.90;;;;;;5130127;27;20035;-71
2022/06/27 00:49:38;;;;;;;9.73;8.20;;;18.50;99.90;;;;;;5130571;27;20050;-71
2022/06/27 00:52:06;;;;;;;12.30;8.60;;;18.40;99.90;;;;;;5127601;27;20097;-71
2022/06/27 00:54:33;;;;;;;11.77;8.70;;;18.30;99.90;;;;;;5110190;27;20437;-71
2022/06/27 00:56:58;;;;;;;11.40;8.07;;;18.30;99.90;;;;;;5107828;28;20086;-71
2022/06/27 00:59:24;;;;;;;13.30;8.40;;;18.20;99.90;;;;;;5110943;28;20090;-71
2022/06/27 01:01:50;;;;;;;11.38;8.30;;;18.30;99.90;;;;;;5118440;27;20043;-71
2022/06/27 01:04:15;;;;;;;11.65;8.27;;;18.20;99.90;;;;;;5110522;27;20071;-71
2022/06/27 01:06:42;;;;;;;11.80;8.75;;;18.20;99.90;;;;;;5108392;28;20047;-71
2022/06/27 01:09:07;;;;;;;12.63;8.75;;;18.20;99.90;;;;;;5110894;27;20108;-71
2022/06/27 01:11:34;;;;;;;10.43;8.70;;;18.30;99.90;;;;;;5078653;28;20043;-71
2022/06/27 01:14:00;;;;;;;11.23;8.48;;;18.10;99.90;;;;;;5110027;28;20119;-71
2022/06/27 01:16:26;;;;;;;12.05;8.75;;;18.20;99.90;;;;;;5109480;28;20040;-71
2022/06/27 01:18:52;;;;;;;13.10;8.27;;;18.20;99.90;;;;;;5109286;28;20050;-71
2022/06/27 01:21:25;;;;;;;13.23;9.25;;;18.10;99.90;;;;;;5111709;27;20136;-71
2022/06/27 01:23:52;;;;;;;12.95;8.55;;;18.20;99.90;;;;;;5130004;27;20467;-71
2022/06/27 01:26:19;;;;;;;12.00;9.40;;;18.20;99.90;;;;;;5130944;27;20046;-71
2022/06/27 01:28:45;;;;;;;9.75;8.57;;;18.40;99.90;;;;;;5102971;28;20086;-71
2022/06/27 01:31:12;;;;;;;10.85;8.63;;;18.10;99.90;;;;;;5091005;28;20047;-71
2022/06/27 01:33:39;;;;;;;11.52;8.75;;;18.40;99.90;;;;;;5108893;28;20465;-71
2022/06/27 01:38:51;;;;;;;10.73;9.35;;;18.10;99.90;;;;;;5107573;28;20044;-71
2022/06/27 01:41:17;;;;;;;11.63;9.65;;;18.20;99.90;;;;;;5109297;28;20039;-71
2022/06/27 01:43:47;;;;;;;12.73;9.50;;;18.20;99.90;;;;;;5108898;28;20373;-71
2022/06/27 01:46:13;;;;;;;11.73;9.65;;;18.20;99.90;;;;;;5108493;28;20050;-71
2022/06/27 01:48:39;;;;;;;11.88;9.10;;;18.20;99.90;;;;;;5095707;28;20385;-71
2022/06/27 01:51:08;;;;;;;11.40;9.15;;;18.20;99.90;;;;;;5090997;28;20397;-71
2022/06/27 01:53:35;;;;;;;12.63;9.73;;;18.20;99.90;;;;;;5089913;28;20032;-71
2022/06/27 01:56:02;;;;;;;12.20;9.70;;;18.20;99.90;;;;;;5114811;27;20069;-71
2022/06/27 01:58:29;;;;;;;12.13;9.50;;;18.20;99.90;;;;;;5127713;27;20142;-71
2022/06/27 02:00:55;;;;;;;12.05;9.55;;;18.10;99.90;;;;;;5118520;27;20135;-71
2022/06/27 02:03:23;;;;;;;14.10;9.85;;;18.20;99.90;;;;;;5108671;28;20043;-71
2022/06/27 02:05:51;;;;;;;12.00;9.25;;;18.20;99.90;;;;;;5109101;28;20046;-71
2022/06/27 02:08:19;;;;;;;14.25;9.45;;;18.20;99.90;;;;;;5107850;28;20488;-71
2022/06/27 02:10:45;;;;;;;11.68;9.30;;;18.20;99.90;;;;;;5109907;28;20039;-71
2022/06/27 02:13:12;;;;;;;13.48;10.10;;;18.20;99.90;;;;;;5107126;28;20058;-71
2022/06/27 02:16:01;;;;;;;12.88;10.23;;;18.60;99.90;;;;;;5107867;28;20047;-71
2022/06/27 02:18:27;;;;;;;11.82;10.32;;;18.30;99.90;;;;;;5108169;28;20051;-71
2022/06/27 02:20:53;;;;;;;12.65;9.75;;;18.20;99.90;;;;;;5108652;28;20410;-71
2022/06/27 02:23:19;;;;;;;12.57;10.05;;;18.20;99.90;;;;;;5108958;28;20114;-71
2022/06/27 02:25:45;;;;;;;12.10;10.35;;;18.20;99.90;;;;;;5108261;28;20119;-71
2022/06/27 02:28:12;;;;;;;13.80;10.18;;;18.20;99.90;;;;;;5106588;28;20043;-71
2022/06/27 02:30:38;;;;;;;13.27;9.50;;;18.30;99.90;;;;;;5108737;28;20395;-71
2022/06/27 02:33:04;;;;;;;12.77;10.80;;;18.30;99.90;;;;;;5110606;28;20040;-71
2022/06/27 02:35:31;;;;;;;12.18;10.60;;;18.30;99.90;;;;;;5108623;28;20110;-71
2022/06/27 02:37:57;;;;;;;14.10;9.80;;;18.20;99.90;;;;;;5080071;28;20058;-71
2022/06/27 02:40:24;;;;;;;11.88;10.10;;;18.30;99.90;;;;;;5109004;28;20092;-71
2022/06/27 02:42:54;;;;;;;12.30;10.63;;;18.30;99.90;;;;;;5088158;28;20446;-71
2022/06/27 02:45:20;;;;;;;11.43;10.00;;;18.30;99.90;;;;;;5109001;28;20035;-71
2022/06/27 02:47:49;;;;;;;12.90;10.23;;;18.30;99.90;;;;;;5109937;28;20061;-71
2022/06/27 02:50:15;;;;;;;14.05;9.70;;;18.30;99.90;;;;;;5112138;27;20100;-71
2022/06/27 02:52:49;;;;;;;13.15;10.93;;;18.30;99.90;;;;;;5113944;27;20428;-71
2022/06/27 02:55:19;;;;;;;12.13;10.13;;;18.30;99.90;;;;;;5115746;27;20094;-71
2022/06/27 02:57:50;;;;;;;12.95;10.32;;;18.30;99.90;;;;;;5132943;27;20077;-71
2022/06/27 03:00:17;;;;;;;16.10;11.43;;;18.30;99.90;;;;;;5133680;27;20043;-71
2022/06/27 03:02:44;;;;;;;14.57;11.10;;;18.30;99.90;;;;;;5106548;27;20083;-72
2022/06/27 03:05:09;;;;;;;15.38;11.32;;;18.30;99.90;;;;;;5126972;27;20614;-71
2022/06/27 03:07:43;;;;;;;12.55;11.25;;;18.30;99.90;;;;;;5131852;27;20143;-71
2022/06/27 03:10:10;;;;;;;14.13;12.18;;;18.20;99.90;;;;;;5112084;27;20472;-70
2022/06/27 03:12:36;;;;;;;14.80;11.23;;;18.10;99.90;;;;;;5130610;27;20110;-70
2022/06/27 03:15:02;;;;;;;14.80;11.98;;;18.10;99.90;;;;;;5132940;27;20150;-71
2022/06/27 03:17:28;;;;;;;15.30;12.32;;;18.10;99.90;;;;;;5111537;27;20039;-71
2022/06/27 03:19:53;;;;;;;18.60;12.32;;;18.00;99.90;;;;;;5112492;28;20507;-71
2022/06/27 03:22:19;;;;;;;16.10;11.25;;;18.10;99.90;;;;;;5111902;28;20040;-71
2022/06/27 03:24:45;;;;;;;13.85;12.27;;;18.00;99.90;;;;;;5111658;28;20447;-71
2022/06/27 03:27:10;;;;;;;12.45;10.77;;;18.10;99.90;;;;;;5110019;28;20436;-71
2022/06/27 03:29:36;;;;;;;14.73;12.73;;;18.30;99.90;;;;;;5111286;28;20129;-71
2022/06/27 03:32:03;;;;;;;14.73;12.65;;;18.10;99.90;;;;;;5110969;28;20061;-71
2022/06/27 03:34:29;;;;;;;19.00;11.95;;;18.00;99.90;;;;;;5093364;28;20072;-71
2022/06/27 03:36:55;;;;;;;14.82;12.93;;;17.90;99.90;;;;;;5111111;28;20082;-71
2022/06/27 03:39:21;;;;;;;17.42;14.13;;;17.90;99.90;;;;;;5112097;28;20572;-70
2022/06/27 03:41:47;;;;;;;16.13;13.43;;;17.80;99.90;;;;;;5116896;27;20514;-71
2022/06/27 03:44:13;;;;;;;18.95;14.70;;;17.80;99.90;;;;;;5132295;27;20063;-71
2022/06/27 03:46:39;;;;;;;19.45;14.77;;;17.70;99.90;;;;;;5115535;27;20470;-71
2022/06/27 03:51:50;;;;;;;19.15;15.55;;;17.70;99.90;;;;;;5118446;27;20039;-70
2022/06/27 03:54:16;;;;;;;19.02;15.35;;;17.60;99.90;;;;;;5131344;27;20039;-71
2022/06/27 03:56:42;;;;;;;21.40;15.95;;;17.50;99.90;;;;;;5129545;27;20059;-71
2022/06/27 03:59:08;;;;;;;17.48;15.35;;;17.50;99.90;;;;;;5127434;27;20448;-71
2022/06/27 04:01:34;;;;;;;18.05;14.27;;;17.50;99.90;;;;;;5112384;28;20408;-71
2022/06/27 04:04:00;;;;;;;15.85;14.18;;;17.50;99.90;;;;;;5113682;28;20096;-71
2022/06/27 04:06:26;;;;;;;17.45;14.55;;;17.60;99.90;;;;;;5110550;28;20489;-71
2022/06/27 04:08:51;;;;;;;19.20;14.98;;;17.60;99.90;;;;;;5111775;28;20043;-71
2022/06/27 04:11:17;;;;;;;19.88;15.05;;;17.60;99.90;;;;;;5112879;27;20173;-71
2022/06/27 04:13:43;;;;;;;18.02;15.07;;;17.60;99.90;;;;;;5127680;27;20092;-71
2022/06/27 04:16:08;;;;;;;16.35;14.38;;;17.50;99.90;;;;;;5130920;27;20050;-71
2022/06/27 04:18:34;;;;;;;16.10;14.35;;;17.50;99.90;;;;;;5131011;27;20108;-71
2022/06/27 04:21:00;;;;;;;18.60;14.43;;;17.50;99.90;;;;;;5130844;27;20035;-71
2022/06/27 04:23:26;;;;;;;18.58;15.00;;;17.60;99.90;;;;;;5112834;27;20058;-71
2022/06/27 04:25:52;;;;;;;17.05;13.50;;;17.70;99.90;;;;;;5129277;27;20028;-71
2022/06/27 04:28:18;;;;;;;18.25;14.02;;;17.70;99.90;;;;;;5129305;27;20149;-71
2022/06/27 04:30:44;;;;;;;20.63;15.52;;;17.70;99.90;;;;;;5131439;27;20039;-71
2022/06/27 04:33:10;;;;;;;17.10;15.30;;;17.70;99.90;;;;;;5130172;27;20047;-71
2022/06/27 04:35:36;;;;;;;17.92;15.88;;;18.20;99.90;;;;;;5130793;27;20031;-71
2022/06/27 04:38:02;;;;;;;21.77;15.15;;;17.60;99.90;;;;;;5130133;27;20134;-71
2022/06/27 04:40:28;;;;;;;16.60;14.90;;;17.50;99.90;;;;;;5111887;27;20036;-71
2022/06/27 04:42:56;;;;;;;19.75;15.13;;;17.50;99.90;;;;;;5110872;28;20084;-72
2022/06/27 04:45:22;;;;;;;18.08;14.25;;;17.50;99.90;;;;;;5113967;27;20222;-71
2022/06/27 04:47:49;;;;;;;16.20;13.63;;;17.50;99.90;;;;;;5109440;28;20049;-71
2022/06/27 04:50:18;;;;;;;15.70;13.18;;;17.50;99.90;;;;;;5109701;28;20079;-71
2022/06/27 04:52:46;;;;;;;16.02;12.40;;;17.50;99.90;;;;;;5111139;27;20126;-71
2022/06/27 04:55:12;;;;;;;13.50;11.20;;;17.50;99.90;;;;;;5111800;27;20052;-71
2022/06/27 04:57:42;;;;;;;12.00;9.63;;;17.50;99.90;;;;;;5128224;27;20062;-71
2022/06/27 05:00:11;;;;;;;13.85;9.20;;;17.60;99.90;;;;;;5111679;27;20046;-71
2022/06/27 05:02:37;;;;;;;12.60;9.82;;;17.50;99.90;;;;;;5129734;27;20047;-70
2022/06/27 05:05:04;;;;;;;12.35;9.15;;;17.50;99.90;;;;;;5130197;27;20047;-71
2022/06/27 05:07:30;;;;;;;10.95;8.10;;;17.50;99.90;;;;;;5119738;27;20039;-71
2022/06/27 05:09:57;;;;;;;10.82;8.50;;;17.50;99.90;;;;;;5109903;28;20093;-71
2022/06/27 05:12:24;;;;;;;11.27;7.82;;;17.60;99.90;;;;;;5105449;28;20123;-71
2022/06/27 05:14:51;;;;;;;9.98;6.82;;;17.80;99.90;;;;;;5108493;28;20047;-71
2022/06/27 05:17:16;;;;;;;9.30;6.93;;;17.70;99.90;;;;;;5108526;28;20519;-71
2022/06/27 05:19:42;;;;;;;7.70;6.75;;;17.80;99.90;;;;;;5110806;27;20452;-71
2022/06/27 05:22:08;;;;;;;8.85;7.07;;;18.10;99.90;;;;;;5109055;28;20051;-71
2022/06/27 05:24:34;;;;;;;8.30;6.50;;;17.70;99.90;;;;;;5109009;28;20039;-71
2022/06/27 05:26:59;;;;;;;7.50;6.00;;;17.70;99.90;;;;;;5108900;28;20040;-71
2022/06/27 05:29:26;;;;;;;8.70;6.72;;;17.80;99.90;;;;;;5108400;28;20503;-71
2022/06/27 05:31:52;;;;;;;8.07;5.30;;;17.70;99.90;;;;;;5110381;27;20526;-70
2022/06/27 05:34:17;;;;;;;6.68;5.03;;;17.70;99.90;;;;;;5127199;27;20126;-71
2022/06/27 05:36:43;;;;;;;5.82;4.85;;;17.70;99.90;;;;;;5102674;27;20051;-70
2022/06/27 05:39:09;;;;;;;5.78;4.65;;;17.50;99.90;;;;;;5128188;27;20043;-70
2022/06/27 05:41:35;;;;;;;5.78;4.68;;;17.60;99.90;;;;;;5109262;27;20039;-70
2022/06/27 05:44:01;;;;;;;6.13;4.50;;;17.60;99.90;;;;;;5131523;27;20047;-70
2022/06/27 05:46:27;;;;;;;7.82;4.40;;;17.80;99.90;;;;;;5127123;27;20123;-70
2022/06/27 05:48:53;;;;;;;5.47;4.20;;;17.60;99.90;;;;;;5129710;27;20046;-70
2022/06/27 05:51:20;;;;;;;7.45;4.68;;;17.60;99.90;;;;;;5129133;27;20483;-70
2022/06/27 05:53:47;;;;;;;5.10;4.10;;;17.60;99.90;;;;;;5114503;27;20035;-70
2022/06/27 05:56:14;;;;;;;5.57;4.45;;;17.70;99.90;;;;;;5073431;28;20063;-70
2022/06/27 05:58:41;;;;;;;4.85;3.97;;;17.80;99.90;;;;;;5114417;27;20130;-69
2022/06/27 06:01:08;;;;;;;5.35;3.70;;;18.10;99.90;;;;;;5128652;27;20088;-70
2022/06/27 06:03:35;;;;;;;5.35;3.97;;;18.40;99.90;;;;;;5113498;27;20048;-70
2022/06/27 06:06:01;;;;;;;5.72;3.90;;;18.00;99.90;;;;;;5110395;28;20043;-70
2022/06/27 06:08:26;;;;;;;4.18;3.60;;;18.10;99.90;;;;;;5123961;27;20368;-71
2022/06/27 06:10:52;;;;;;;6.32;3.67;;;18.20;99.90;;;;;;5126731;27;20074;-71
2022/06/27 06:13:18;;;;;;;4.55;3.60;;;18.60;99.90;;;;;;5110827;28;20567;-70
2022/06/27 06:15:45;;;;;;;5.10;3.45;;;18.40;99.90;;;;;;5108161;28;20050;-71
2022/06/27 06:18:11;;;;;;;4.80;3.20;;;18.40;99.90;;;;;;5108219;28;20395;-71
2022/06/27 06:20:37;;;;;;;4.45;3.20;;;18.50;99.90;;;;;;5121771;28;20035;-71
2022/06/27 06:23:03;;;;;;;4.53;3.30;;;18.50;99.90;;;;;;5109770;28;20043;-71
2022/06/27 06:25:29;;;;;;;4.03;2.72;;;18.60;99.90;;;;;;5111613;28;20137;-71
2022/06/27 06:28:02;;;;;;;4.10;2.97;;;18.90;99.90;;;;;;5110973;27;20077;-71
2022/06/27 06:30:29;;;;;;;4.07;2.80;;;18.50;99.90;;;;;;5116415;27;20523;-71
2022/06/27 06:32:56;;;;;;;4.32;3.20;;;18.50;99.90;;;;;;5111992;28;20054;-71
2022/06/27 06:35:23;;;;;;;3.95;2.90;;;18.60;99.90;;;;;;5111672;28;20123;-70
2022/06/27 06:37:51;;;;;;;4.53;2.70;;;18.50;99.90;;;;;;5092873;28;20051;-70
2022/06/27 06:40:16;;;;;;;3.92;2.70;;;18.50;99.90;;;;;;5113909;27;20044;-70
2022/06/27 06:42:42;;;;;;;3.33;2.50;;;18.50;99.90;;;;;;5111259;28;20173;-71
2022/06/27 06:45:08;;;;;;;4.28;2.28;;;19.00;99.90;;;;;;5110961;28;20044;-71
2022/06/27 06:47:42;;;;;;;4.38;2.15;;;18.60;99.90;;;;;;5110913;28;20517;-70
2022/06/27 06:50:09;;;;;;;6.28;2.50;;;18.60;99.90;;;;;;5094170;28;20384;-71
2022/06/27 06:52:38;;;;;;;3.55;2.40;;;18.60;99.90;;;;;;5101117;28;20044;-70
2022/06/27 06:55:04;;;;;;;3.88;2.40;;;18.60;99.90;;;;;;5111612;28;20052;-70
2022/06/27 06:57:29;;;;;;;4.72;2.40;;;18.60;99.90;;;;;;5110370;28;20052;-71
2022/06/27 06:59:55;;;;;;;4.72;2.40;;;18.60;99.90;;;;;;5113266;27;20047;-70
2022/06/27 07:02:21;;;;;;;3.35;2.22;;;18.70;99.90;;;;;;5109102;28;20439;-71
2022/06/27 07:04:47;;;;;;;3.78;2.22;;;18.60;99.90;;;;;;5118394;27;20405;-70
2022/06/27 07:07:14;;;;;;;3.10;2.10;;;18.60;99.90;;;;;;5127313;27;20141;-70
2022/06/27 07:09:39;;;;;;;4.88;2.40;;;18.60;99.90;;;;;;5111670;28;20083;-70
2022/06/27 07:12:05;;;;;;;4.63;2.50;;;18.60;99.90;;;;;;5122436;27;20109;-70
2022/06/27 07:14:31;;;;;;;3.67;2.63;;;18.60;99.90;;;;;;5112993;27;20096;-70
2022/06/27 07:16:56;;;;;;;4.70;3.10;;;18.70;99.90;;;;;;5112699;27;20480;-70
2022/06/27 07:19:23;;;;;;;4.30;2.97;;;18.70;99.90;;;;;;5110877;27;20377;-70
2022/06/27 07:21:48;;;;;;;4.40;2.90;;;18.70;99.90;;;;;;5122192;27;20122;-70
2022/06/27 07:24:14;;;;;;;4.82;2.97;;;18.80;99.90;;;;;;5107884;28;20123;-70
2022/06/27 07:26:39;;;;;;;4.72;3.15;;;18.80;99.90;;;;;;5094090;28;20043;-70
2022/06/27 07:29:06;;;;;;;5.57;3.75;;;18.80;99.90;;;;;;5092693;28;20400;-70
2022/06/27 07:31:32;;;;;;;6.07;3.50;;;18.80;99.90;;;;;;5110251;28;20040;-70
2022/06/27 07:33:59;;;;;;;5.50;3.80;;;18.70;99.90;;;;;;5111858;28;20043;-70
2022/06/27 07:36:28;;;;;;;6.60;3.85;;;18.70;99.90;;;;;;5108491;28;20051;-70
2022/06/27 07:38:55;;;;;;;9.95;4.45;;;19.00;99.90;;;;;;5127340;27;20054;-70
2022/06/27 07:41:23;;;;;;;5.88;3.67;;;18.70;99.90;;;;;;5124688;27;20542;-70
2022/06/27 07:43:49;;;;;;;6.10;4.00;;;18.40;99.90;;;;;;5111757;28;20108;-70
2022/06/27 07:46:17;;;;;;;4.55;3.50;;;18.40;99.90;;;;;;5109024;28;20040;-69
2022/06/27 07:48:44;;;;;;;5.35;3.38;;;18.40;99.90;;;;;;5110662;28;20095;-69
2022/06/27 07:51:10;;;;;;;7.97;3.88;;;18.40;99.90;;;;;;5121426;27;20047;-70
2022/06/27 07:53:37;;;;;;;5.38;3.90;;;18.50;99.90;;;;;;5131166;27;20151;-70
2022/06/27 07:56:06;;;;;;;5.53;3.60;;;18.50;99.90;;;;;;5130779;27;20066;-69
2022/06/27 07:58:35;;;;;;;4.95;3.50;;;18.50;99.90;;;;;;5128702;27;20172;-70
2022/06/27 08:01:07;;;;;;;4.97;3.50;;;18.50;99.90;;;;;;5130241;27;20053;-70
2022/06/27 08:03:46;;;;;;;5.68;3.33;;;18.50;99.90;;;;;;5115582;27;20123;-70
2022/06/27 08:06:18;;;;;;;5.47;3.42;;;18.50;99.90;;;;;;5111993;27;20046;-70
2022/06/27 08:08:50;;;;;;;4.63;3.70;;;18.60;99.90;;;;;;5130500;27;20079;-71
2022/06/27 08:11:24;;;;;;;6.13;3.38;;;18.60;99.90;;;;;;5130200;27;20051;-70
2022/06/27 08:13:52;;;;;;;5.88;3.97;;;18.70;99.90;;;;;;5130095;27;20039;-70
2022/06/27 08:16:20;;;;;;;5.90;3.40;;;18.70;99.90;;;;;;5126057;27;20043;-70
2022/06/27 08:18:47;;;;;;;5.70;3.88;;;18.60;99.90;;;;;;5116847;27;20051;-70
2022/06/27 08:21:16;;;;;;;5.50;3.67;;;18.70;99.90;;;;;;5122270;27;20036;-71
2022/06/27 08:23:41;;;;;;;5.60;3.88;;;18.80;99.90;;;;;;5110449;27;20112;-70
2022/06/27 08:26:08;;;;;;;5.38;3.65;;;18.80;99.90;;;;;;5107900;28;20040;-70
2022/06/27 08:28:39;;;;;;;10.07;3.92;;;18.90;99.90;;;;;;5110840;28;20035;-70
2022/06/27 08:31:11;;;;;;;6.65;4.03;;;18.90;99.90;;;;;;5113074;28;20054;-70
2022/06/27 08:33:43;;;;;;;5.95;3.90;;;18.90;99.90;;;;;;5111915;28;20039;-71
2022/06/27 08:36:09;;;;;;;4.85;3.90;;;19.10;99.90;;;;;;5109873;28;20364;-72
2022/06/27 08:38:50;;;;;;;5.50;3.88;;;19.10;99.90;;;;;;5108227;28;20047;-70
2022/06/27 08:41:23;;;;;;;7.97;4.28;;;19.30;99.90;;;;;;5112783;28;20378;-70
2022/06/27 08:43:55;;;;;;;6.82;4.30;;;19.40;99.90;;;;;;5113777;28;20040;-70
2022/06/27 08:46:22;;;;;;;5.88;3.95;;;19.50;99.90;;;;;;5110718;28;20400;-70
2022/06/27 08:48:49;;;;;;;7.93;3.90;;;19.50;99.90;;;;;;5109151;28;20109;-70
2022/06/27 08:51:15;;;;;;;8.48;3.92;;;19.60;99.90;;;;;;5109821;27;20039;-70
2022/06/27 08:53:41;;;;;;;4.78;3.70;;;19.60;99.90;;;;;;5108945;28;20039;-70
2022/06/27 08:56:10;;;;;;;5.32;3.40;;;19.60;99.90;;;;;;5108521;28;20056;-71
2022/06/27 08:58:37;;;;;;;3.88;3.10;;;19.50;99.90;;;;;;5106031;28;20372;-71
2022/06/27 09:01:04;;;;;;;4.53;3.03;;;19.50;99.90;;;;;;5108045;28;20164;-71
2022/06/27 09:03:32;;;;;;;4.15;3.00;;;19.50;99.90;;;;;;5097407;28;20044;-71
2022/06/27 09:06:03;;;;;;;4.38;3.20;;;19.70;99.90;;;;;;5109688;28;20043;-71
2022/06/27 09:08:36;;;;;;;6.38;3.75;;;19.70;99.90;;;;;;5110141;28;20091;-71
2022/06/27 09:11:03;;;;;;;4.40;3.22;;;19.60;99.90;;;;;;5091569;28;20395;-71
2022/06/27 09:13:30;;;;;;;5.88;3.63;;;19.70;99.90;;;;;;5107308;28;20046;-71
2022/06/27 09:15:59;;;;;;;9.05;3.83;;;19.80;99.90;;;;;;5108910;28;20368;-71
2022/06/27 09:18:26;;;;;;;5.20;3.83;;;19.70;99.90;;;;;;5110902;28;20172;-71
2022/06/27 09:20:54;;;;;;;6.43;4.00;;;19.80;99.90;;;;;;5108830;28;20126;-72
2022/06/27 09:23:49;;;;;;;5.38;3.83;;;19.90;99.90;;;;;;5093992;27;20043;-79
2022/06/27 09:26:26;;;;;;;6.80;4.32;;;20.00;99.90;;;;;;5127899;27;20422;-79
2022/06/27 09:29:03;;;;;;;5.65;4.43;;;20.10;99.90;;;;;;5125133;27;20043;-79
2022/06/27 09:31:37;;;;;;;6.05;4.53;;;20.20;99.90;;;;;;5110822;27;20047;-79
2022/06/27 09:34:05;;;;;;;5.80;4.50;;;20.10;99.90;;;;;;5129097;27;20083;-79
2022/06/27 09:36:32;;;;;;;6.43;4.60;;;20.00;99.90;;;;;;5128596;27;20035;-79
2022/06/27 09:39:02;;;;;;;6.25;4.00;;;19.90;99.90;;;;;;5109884;27;20398;-79
2022/06/27 09:41:32;;;;;;;6.32;4.65;;;19.80;99.90;;;;;;5117492;27;20126;-73
2022/06/27 09:44:10;;;;;;;6.28;4.30;;;19.70;99.90;;;;;;5123872;27;20418;-74
2022/06/27 09:46:42;;;;;;;5.78;4.45;;;19.60;99.90;;;;;;5123922;27;20490;-75
2022/06/27 09:49:12;;;;;;;7.15;4.18;;;19.50;99.90;;;;;;5124584;27;20051;-75
2022/06/27 09:51:40;;;;;;;6.53;4.20;;;19.40;99.90;;;;;;5102269;28;20371;-74
2022/06/27 09:54:08;;;;;;;7.00;4.05;;;19.30;99.90;;;;;;5102904;28;20050;-75
2022/06/27 09:56:39;;;;;;;6.90;4.78;;;19.40;99.90;;;;;;5101929;28;20404;-74
2022/06/27 09:59:07;;;;;;;7.25;4.80;;;19.50;99.90;;;;;;5103872;28;20119;-74
2022/06/27 10:01:33;;;;;;;7.88;4.53;;;19.50;99.90;;;;;;5105436;28;20094;-74
2022/06/27 10:04:01;;;;;;;5.32;4.35;;;19.50;99.90;;;;;;5106331;27;20039;-75
2022/06/27 10:06:29;;;;;;;6.63;4.70;;;19.40;99.90;;;;;;5124337;27;20461;-73
2022/06/27 10:08:55;;;;;;;9.18;4.63;;;19.50;99.90;;;;;;5125036;27;20131;-73
2022/06/27 10:11:21;;;;;;;6.30;4.40;;;19.40;99.90;;;;;;5109593;28;20520;-74
2022/06/27 10:14:16;;;;;;;5.63;4.28;;;19.40;99.90;;;;;;5122967;28;20116;-73
2022/06/27 10:16:54;;;;;;;6.18;3.83;;;19.30;99.90;;;;;;5124687;28;20051;-74
2022/06/27 10:19:21;;;;;;;6.95;4.60;;;19.30;99.90;;;;;;5106645;28;20064;-74
2022/06/27 10:21:48;;;;;;;5.50;4.30;;;19.30;99.90;;;;;;5124520;28;20544;-74
2022/06/27 10:24:24;;;;;;;6.10;3.63;;;19.40;99.90;;;;;;5124825;28;20035;-76
2022/06/27 10:26:55;;;;;;;5.68;3.85;;;19.40;99.90;;;;;;5121582;28;20401;-71
2022/06/27 10:29:27;;;;;;;4.72;3.50;;;19.50;99.90;;;;;;5125707;28;20094;-70
2022/06/27 10:31:53;;;;;;;6.35;4.30;;;19.50;99.90;;;;;;5124519;28;20065;-70
2022/06/27 10:34:43;;;;;;;5.85;3.90;;;19.60;99.90;;;;;;5123353;28;20463;-70
2022/06/27 10:37:21;;;;;;;5.60;3.97;;;19.70;99.90;;;;;;5106158;28;20043;-71
2022/06/27 10:39:47;;;;;;;5.93;3.80;;;19.70;99.90;;;;;;5124846;28;20047;-70
2022/06/27 10:42:51;;;;;;;7.18;3.38;;;19.80;99.90;;;;;;5118151;28;20119;-70
2022/06/27 10:45:19;;;;;;;7.03;3.70;;;19.80;99.90;;;;;;5109153;28;20048;-70
2022/06/27 10:47:45;;;;;;;5.65;3.63;;;19.90;99.90;;;;;;5112261;28;20047;-71
2022/06/27 10:50:15;;;;;;;5.05;3.70;;;19.90;99.90;;;;;;5102385;28;20096;-71
2022/06/27 10:52:41;;;;;;;4.97;3.60;;;20.00;99.90;;;;;;5106927;28;20043;-71
2022/06/27 10:55:24;;;;;;;4.95;3.40;;;20.00;99.90;;;;;;5100613;28;20379;-70
2022/06/27 10:57:51;;;;;;;6.00;3.33;;;20.10;99.90;;;;;;5106480;28;20095;-70
2022/06/27 11:00:36;;;;;;;4.57;3.10;;;20.10;99.90;;;;;;5089190;28;20044;-71
2022/06/27 11:03:03;;;;;;;7.20;3.45;;;20.30;99.90;;;;;;5123045;28;20047;-70
2022/06/27 11:05:30;;;;;;;5.47;3.75;;;20.40;99.90;;;;;;5128665;28;20126;-70
2022/06/27 11:07:56;;;;;;;4.82;3.20;;;20.50;99.90;;;;;;5127622;28;20043;-70
2022/06/27 11:10:22;;;;;;;5.68;3.60;;;20.40;99.90;;;;;;5131765;27;20480;-70
2022/06/27 11:12:47;;;;;;;4.80;3.47;;;20.50;99.90;;;;;;5130297;27;20053;-70
2022/06/27 11:15:13;;;;;;;5.32;3.45;;;20.60;99.90;;;;;;5131592;27;20074;-70
2022/06/27 11:17:44;;;;;;;5.65;3.40;;;20.60;99.90;;;;;;5113517;27;20039;-70
2022/06/27 11:20:40;;;;;;;5.13;3.25;;;20.80;99.90;;;;;;5132041;27;20138;-70
2022/06/27 11:23:06;;;;;;;5.75;3.30;;;20.70;99.90;;;;;;5109903;27;20059;-71
2022/06/27 11:25:32;;;;;;;4.30;3.20;;;20.80;99.90;;;;;;5113362;27;20047;-71
2022/06/27 11:33:31;;;;;;;5.45;3.13;;;20.70;99.90;;;;;;5113426;27;20376;-71
2022/06/27 11:35:59;;;;;;;5.05;2.90;;;20.80;99.90;;;;;;5112444;27;20150;-70
2022/06/27 11:38:24;;;;;;;4.60;2.60;;;20.70;99.90;;;;;;5131652;27;20495;-71
2022/06/27 11:41:05;;;;;;;7.45;2.80;;;20.60;99.90;;;;;;5095455;28;20043;-71
2022/06/27 11:43:51;;;;;;;3.50;2.35;;;20.60;99.90;;;;;;5119295;27;20068;-70
2022/06/27 11:46:26;;;;;;;3.97;2.33;;;20.60;99.90;;;;;;5113797;27;20044;-69
2022/06/27 11:49:00;;;;;;;5.50;2.70;;;20.50;99.90;;;;;;5106528;28;20139;-70
2022/06/27 11:51:35;;;;;;;4.00;2.30;;;20.50;99.90;;;;;;5107494;28;20043;-68
2022/06/27 11:54:08;;;;;;;6.05;2.58;;;20.50;99.90;;;;;;5107552;28;20059;-70
2022/06/27 11:56:39;;;;;;;4.43;2.70;;;20.50;99.90;;;;;;5104753;28;20094;-69
2022/06/27 11:59:06;;;;;;;14.95;3.13;;;20.50;99.90;;;;;;5107208;28;20097;-69
2022/06/27 12:01:32;;;;;;;5.97;2.47;;;20.40;99.90;;;;;;5106592;27;20044;-70
2022/06/27 12:04:15;;;;;;;3.80;2.22;;;20.50;99.90;;;;;;5112109;27;20108;-69
2022/06/27 12:06:46;;;;;;;5.85;2.80;;;20.50;99.90;;;;;;5108803;27;20368;-69
2022/06/27 12:09:12;;;;;;;4.68;2.60;;;20.60;99.90;;;;;;5118935;27;20393;-69
2022/06/27 12:11:55;;;;;;;4.35;2.70;;;20.60;99.90;;;;;;5108183;28;20047;-70
2022/06/27 12:14:22;;;;;;;3.50;2.50;;;20.60;99.90;;;;;;5111191;28;20046;-70
2022/06/27 12:16:50;;;;;;;3.65;2.35;;;20.60;99.90;;;;;;5118880;27;20593;-71
2022/06/27 12:19:16;;;;;;;4.20;2.65;;;20.50;99.90;;;;;;5112705;27;20475;-70
2022/06/27 12:21:43;;;;;;;5.45;3.03;;;20.50;99.90;;;;;;5130035;27;20066;-70
2022/06/27 12:24:10;;;;;;;4.20;2.60;;;20.50;99.90;;;;;;5130803;27;20046;-71
2022/06/27 12:26:36;;;;;;;4.82;2.70;;;20.60;99.90;;;;;;5132030;27;20039;-71
2022/06/27 12:29:05;;;;;;;5.53;2.78;;;20.60;99.90;;;;;;5130833;27;20039;-71
2022/06/27 12:31:33;;;;;;;3.47;2.50;;;20.60;99.90;;;;;;5127710;27;20042;-71
2022/06/27 12:33:59;;;;;;;4.93;2.70;;;20.70;99.90;;;;;;5094861;27;20081;-72
2022/06/27 12:36:24;;;;;;;4.18;2.80;;;20.80;99.90;;;;;;5132951;27;20455;-71
2022/06/27 12:38:50;;;;;;;4.15;2.80;;;20.80;99.90;;;;;;5129890;27;20120;-71
2022/06/27 12:41:16;;;;;;;4.82;2.80;;;20.80;99.90;;;;;;5130677;27;20122;-71
2022/06/27 12:43:43;;;;;;;5.15;2.95;;;20.90;99.90;;;;;;5127427;27;20071;-71
2022/06/27 12:46:10;;;;;;;4.22;2.97;;;20.90;99.90;;;;;;5131699;27;20042;-70
2022/06/27 12:48:37;;;;;;;4.70;3.35;;;21.00;99.90;;;;;;5121812;27;20471;-71
2022/06/27 12:51:04;;;;;;;4.90;3.13;;;21.10;99.90;;;;;;5101630;28;20085;-70
2022/06/27 12:53:30;;;;;;;6.05;3.00;;;21.10;99.90;;;;;;5108534;28;20043;-72
2022/06/27 12:55:57;;;;;;;4.45;3.15;;;21.20;99.90;;;;;;5092530;28;20048;-69